Haverhill, Florida
Current Conditions -  °F | °C
As of 2:53 AM on Friday 31 Oct 2014 (Local Time) from KPBI Reporting Station
Few Clouds Few Clouds  
Wind Chill: 71°   Ceiling: Unl
Heat Index: 71°   Visibility: 10mi
Dew Point: 69°   Wind: 5mph
Humidity: 93%   Direction: 230°SW
Pressure: 29.83"   Gusts: NA
Location:  26.6599°N, 80.1276°W
Report Text: KPBI 310653Z 23004KT 10SM FEW250 22/21 A2983 RMK AO2 SLP101 T02170206
Loading
Personal Weather Stations






























Interactive Weather Map
Tropical Storm Tracking
New forecast layout! Learn more

10-Day Weather Forecast

Advertisements
Track Severe Weather on mobile